Time;durP1;ratioP1;P1;durP2;ratioP2;P2;SDS_P1;SDS_P2;PMS_P1;PMS_P2;Temp;Humidity;BMP_temperature;BMP_pressure;BME280_temperature;BME280_humidity;BME280_pressure;Samples;Min_cycle;Max_cycle;Signal;HPM_P1;HPM_P2
2021/01/10 00:02:22;;;;;;;18.23;13.33;;;;;;;-144.99;100.00;52619.31;5068087;28;21183;-74
2021/01/10 00:04:49;;;;;;;18.87;14.43;;;;;;;-144.99;100.00;52586.69;5064463;28;20663;-74
2021/01/10 00:07:15;;;;;;;17.37;12.13;;;;;;;-144.99;100.00;52582.63;5056976;28;21215;-75
2021/01/10 00:09:41;;;;;;;21.50;15.47;;;;;;;-144.99;100.00;52611.16;5066963;28;20684;-74
2021/01/10 00:12:07;;;;;;;21.47;14.40;;;;;;;-144.99;100.00;52619.31;5068523;28;21239;-74
2021/01/10 00:14:33;;;;;;;20.07;13.43;;;;;;;-144.99;100.00;52615.25;5067095;28;20660;-76
2021/01/10 00:17:00;;;;;;;17.90;12.67;;;;;;;-144.99;100.00;52592.81;5066103;28;20626;-76
2021/01/10 00:19:26;;;;;;;19.37;13.60;;;;;;;-144.99;100.00;52582.63;5066232;28;20693;-75
2021/01/10 00:21:53;;;;;;;18.50;12.33;;;;;;;-144.99;100.00;52615.25;5066194;28;20666;-77
2021/01/10 00:24:19;;;;;;;20.13;13.07;;;;;;;-144.99;100.00;52607.09;5064354;28;20739;-76
2021/01/10 00:26:46;;;;;;;16.37;12.50;;;;;;;-144.99;100.00;52570.38;5072326;22;20756;-73
2021/01/10 00:29:12;;;;;;;22.00;12.57;;;;;;;-144.99;100.00;52598.94;5066414;28;20626;-74
2021/01/10 00:31:38;;;;;;;16.87;12.17;;;;;;;-144.99;100.00;52649.88;5060893;28;20721;-73
2021/01/10 00:34:05;;;;;;;17.73;13.67;;;;;;;-144.99;100.00;52600.97;5056089;28;20707;-72
2021/01/10 00:36:34;;;;;;;18.47;12.50;;;;;;;-144.99;100.00;52580.59;5061365;28;20704;-72
2021/01/10 00:39:01;;;;;;;19.93;13.73;;;;;;;-144.99;100.00;52603.00;5050645;28;20675;-72
2021/01/10 00:41:27;;;;;;;18.00;12.70;;;;;;;-144.99;100.00;52631.53;5057660;28;20653;-72
2021/01/10 00:43:53;;;;;;;18.13;12.80;;;;;;;-144.99;100.00;52613.19;5050360;28;20670;-72
2021/01/10 00:46:19;;;;;;;16.43;13.20;;;;;;;-144.99;100.00;52613.19;5042806;28;20713;-73
2021/01/10 00:48:46;;;;;;;18.37;12.57;;;;;;;-144.99;100.00;52590.78;5051181;28;20631;-71
2021/01/10 00:51:13;;;;;;;22.97;13.40;;;;;;;-144.99;100.00;52594.84;5058735;28;20658;-73
2021/01/10 00:53:40;;;;;;;16.40;14.00;;;;;;;-144.99;100.00;52592.81;5042656;28;21261;-71
2021/01/10 00:56:08;;;;;;;18.33;14.13;;;;;;;-144.99;100.00;52615.25;5043342;28;20650;-72
2021/01/10 00:58:34;;;;;;;26.13;15.83;;;;;;;-144.99;100.00;52619.31;5045852;28;20787;-71
2021/01/10 01:01:01;;;;;;;20.47;14.47;;;;;;;-144.99;100.00;52603.00;5050590;28;20610;-72
2021/01/10 01:03:27;;;;;;;20.37;14.90;;;;;;;-144.99;100.00;52619.31;5052010;28;21163;-71
2021/01/10 01:05:53;;;;;;;19.73;13.43;;;;;;;-144.99;100.00;52643.78;5049606;28;21266;-72
2021/01/10 01:08:20;;;;;;;18.47;13.67;;;;;;;-144.99;100.00;52603.00;5053511;28;20666;-73
2021/01/10 01:10:47;;;;;;;22.03;15.37;;;;;;;-144.99;100.00;52603.00;5054467;28;20626;-72
2021/01/10 01:13:14;;;;;;;21.70;14.40;;;;;;;-144.99;100.00;52566.31;5055259;28;20690;-73
2021/01/10 01:15:40;;;;;;;20.27;14.03;;;;;;;-144.99;100.00;52594.84;5054765;28;20683;-73
2021/01/10 01:18:07;;;;;;;19.50;13.67;;;;;;;-144.99;100.00;52619.31;5044269;28;21250;-74
2021/01/10 01:20:33;;;;;;;17.70;14.07;;;;;;;-144.99;100.00;52578.53;5051427;28;20639;-74
2021/01/10 01:22:59;;;;;;;24.70;17.73;;;;;;;-144.99;100.00;52623.38;5060567;28;20986;-74
2021/01/10 01:25:26;;;;;;;19.50;14.00;;;;;;;-144.99;100.00;52635.63;5050251;28;20634;-75
2021/01/10 01:27:52;;;;;;;20.10;14.60;;;;;;;-144.99;100.00;52615.25;5063479;28;20635;-73
2021/01/10 01:30:19;;;;;;;22.00;14.97;;;;;;;-144.99;100.00;52623.38;5049187;28;20820;-73
2021/01/10 01:32:45;;;;;;;21.23;14.70;;;;;;;-144.99;100.00;52578.53;5045995;28;20630;-74
2021/01/10 01:35:12;;;;;;;21.90;13.90;;;;;;;-144.99;100.00;52600.97;5052671;28;20637;-74
2021/01/10 01:37:38;;;;;;;18.93;14.73;;;;;;;-144.99;100.00;52594.84;4703480;28;10000477;-73
2021/01/10 01:40:05;;;;;;;24.53;14.73;;;;;;;-144.99;100.00;52594.84;5051477;28;20225;-73
2021/01/10 01:42:32;;;;;;;23.23;15.43;;;;;;;-144.99;100.00;52600.97;5055280;28;20885;-74
2021/01/10 01:44:58;;;;;;;23.43;16.80;;;;;;;-144.99;100.00;52645.81;5059878;28;20993;-74
2021/01/10 01:47:25;;;;;;;23.50;16.53;;;;;;;-144.99;100.00;52603.00;5062061;28;20671;-74
2021/01/10 01:49:51;;;;;;;22.73;15.70;;;;;;;-144.99;100.00;52590.78;5053307;28;20639;-73
2021/01/10 01:52:17;;;;;;;25.73;18.20;;;;;;;-144.99;100.00;52615.25;5070618;28;20622;-74
2021/01/10 01:54:44;;;;;;;29.03;20.00;;;;;;;-144.99;100.00;52615.25;5043385;28;20629;-74
2021/01/10 01:57:10;;;;;;;23.17;17.37;;;;;;;-144.99;100.00;52611.16;5054258;28;20780;-74
2021/01/10 01:59:37;;;;;;;25.97;17.93;;;;;;;-144.99;100.00;52619.31;5064107;28;20708;-75
2021/01/10 02:02:05;;;;;;;27.57;17.03;;;;;;;-144.99;100.00;52598.94;5057220;28;20968;-74
2021/01/10 02:04:34;;;;;;;25.97;18.10;;;;;;;-144.99;100.00;52570.38;5057637;28;20645;-75
2021/01/10 02:07:08;;;;;;;25.00;18.57;;;;;;;-144.99;100.00;52590.78;5064376;28;20683;-75
2021/01/10 02:09:38;;;;;;;30.33;20.73;;;;;;;-144.99;100.00;52596.88;5049220;28;21189;-75
2021/01/10 02:12:07;;;;;;;25.83;19.27;;;;;;;-144.99;100.00;52611.16;5058611;28;20677;-75
2021/01/10 02:14:40;;;;;;;26.77;16.63;;;;;;;-144.99;100.00;52590.78;5047364;28;20641;-75
2021/01/10 02:17:08;;;;;;;26.80;16.47;;;;;;;-144.99;100.00;52584.66;5059266;28;20765;-76
2021/01/10 02:19:42;;;;;;;29.67;19.00;;;;;;;-144.99;100.00;52611.16;5054263;28;20688;-75
2021/01/10 02:22:11;;;;;;;25.63;19.33;;;;;;;-144.99;100.00;52590.78;5044873;28;20660;-75
2021/01/10 02:24:38;;;;;;;28.30;20.87;;;;;;;-144.99;100.00;52558.16;5058931;28;20632;-76
2021/01/10 02:27:06;;;;;;;31.83;21.93;;;;;;;-144.99;100.00;52594.84;5077707;28;20679;-74
2021/01/10 02:29:34;;;;;;;30.13;21.47;;;;;;;-144.99;100.00;52590.78;5079554;28;20604;-74
2021/01/10 02:32:02;;;;;;;29.73;21.40;;;;;;;-144.99;100.00;52586.69;5059947;28;20660;-73
2021/01/10 02:34:29;;;;;;;30.47;19.30;;;;;;;-144.99;100.00;52615.25;5072305;28;20635;-73
2021/01/10 02:37:09;;;;;;;26.67;19.57;;;;;;;-144.99;100.00;52609.13;5066713;28;20717;-72
2021/01/10 02:39:46;;;;;;;36.40;22.50;;;;;;;-144.99;100.00;52611.16;5048799;28;20667;-73
2021/01/10 02:42:20;;;;;;;30.63;19.73;;;;;;;-144.99;100.00;52558.16;5061709;28;20671;-73
2021/01/10 02:44:53;;;;;;;26.80;18.43;;;;;;;-144.99;100.00;52607.09;5070171;28;20615;-74
2021/01/10 02:47:20;;;;;;;28.63;18.33;;;;;;;-144.99;100.00;52647.84;5051600;28;20660;-74
2021/01/10 02:49:46;;;;;;;25.70;18.37;;;;;;;-144.99;100.00;52639.69;5054200;28;20650;-75
2021/01/10 02:52:13;;;;;;;41.30;20.40;;;;;;;-144.99;100.00;52590.78;5064849;28;21264;-76
2021/01/10 02:54:39;;;;;;;26.93;19.37;;;;;;;-144.99;100.00;52578.53;5042976;28;20705;-73
2021/01/10 02:57:10;;;;;;;27.83;18.97;;;;;;;-144.99;100.00;52594.84;5044029;28;21229;-74
2021/01/10 02:59:43;;;;;;;27.17;18.37;;;;;;;-144.99;100.00;52625.44;5049253;28;21020;-73
2021/01/10 03:02:12;;;;;;;25.77;19.00;;;;;;;-144.99;100.00;52619.31;5048636;28;20657;-73
2021/01/10 03:04:39;;;;;;;30.13;21.20;;;;;;;-144.99;100.00;52603.00;5055640;28;20635;-74
2021/01/10 03:07:07;;;;;;;28.20;18.43;;;;;;;-144.99;100.00;52615.25;5060370;28;20979;-73
2021/01/10 03:09:33;;;;;;;24.90;19.83;;;;;;;-144.99;100.00;52598.94;5050145;28;21075;-74
2021/01/10 03:12:15;;;;;;;25.70;19.30;;;;;;;-144.99;100.00;52631.53;5057101;28;21010;-74
2021/01/10 03:14:43;;;;;;;30.60;19.60;;;;;;;-144.99;100.00;52603.00;5045391;28;20736;-74
2021/01/10 03:17:14;;;;;;;27.33;18.73;;;;;;;-144.99;100.00;52598.94;5045704;28;20651;-74
2021/01/10 03:19:40;;;;;;;23.23;16.43;;;;;;;-144.99;100.00;52613.19;5050674;28;20648;-72
2021/01/10 03:22:06;;;;;;;28.40;18.60;;;;;;;-144.99;100.00;52574.47;5034405;28;20723;-73
2021/01/10 03:24:32;;;;;;;25.60;18.00;;;;;;;-144.99;100.00;52586.69;5051519;28;20609;-72
2021/01/10 03:26:58;;;;;;;28.73;20.97;;;;;;;-144.99;100.00;52578.53;5060966;28;20705;-73
2021/01/10 03:29:25;;;;;;;25.63;19.10;;;;;;;-144.99;100.00;52611.16;5057791;28;20619;-72
2021/01/10 03:31:51;;;;;;;26.47;18.10;;;;;;;-144.99;100.00;52588.75;5040360;28;20641;-72
2021/01/10 03:34:18;;;;;;;27.00;17.90;;;;;;;-144.99;100.00;52615.25;5049210;28;20666;-73
2021/01/10 03:36:44;;;;;;;24.43;17.07;;;;;;;-144.99;100.00;52605.03;5055629;28;20710;-74
2021/01/10 03:39:10;;;;;;;27.27;17.97;;;;;;;-144.99;100.00;52582.63;5054700;28;20679;-73
2021/01/10 03:41:36;;;;;;;24.10;18.73;;;;;;;-144.99;100.00;52600.97;5059372;28;20658;-73
2021/01/10 03:44:02;;;;;;;22.73;16.97;;;;;;;-144.99;100.00;52623.38;5053034;28;20670;-73
2021/01/10 03:46:29;;;;;;;25.90;19.83;;;;;;;-144.99;100.00;52590.78;5062252;28;20692;-73
2021/01/10 03:48:55;;;;;;;29.07;18.87;;;;;;;-144.99;100.00;52611.16;5037692;28;21219;-72
2021/01/10 03:51:27;;;;;;;25.67;19.30;;;;;;;-144.99;100.00;52590.78;5057555;28;20680;-73
2021/01/10 03:53:53;;;;;;;28.03;19.27;;;;;;;-144.99;100.00;52621.34;5050134;28;20662;-74
2021/01/10 03:56:19;;;;;;;26.17;17.60;;;;;;;-144.99;100.00;52603.00;5067361;28;20655;-74
2021/01/10 03:58:45;;;;;;;25.30;16.97;;;;;;;-144.99;100.00;52643.78;5068794;28;20654;-71
2021/01/10 04:01:11;;;;;;;32.63;20.57;;;;;;;-144.99;100.00;52631.53;5065044;28;20699;-73
2021/01/10 04:03:38;;;;;;;25.83;18.27;;;;;;;-144.99;100.00;52611.16;5062992;28;20787;-73
2021/01/10 04:06:05;;;;;;;25.90;18.73;;;;;;;-144.99;100.00;52582.63;5063007;28;20700;-74
2021/01/10 04:08:31;;;;;;;31.13;20.80;;;;;;;-144.99;100.00;52590.78;5058260;28;20730;-73
2021/01/10 04:10:57;;;;;;;31.33;20.87;;;;;;;-144.99;100.00;52590.78;5061029;28;20665;-73
2021/01/10 04:13:23;;;;;;;29.57;18.90;;;;;;;-144.99;100.00;52623.38;5053882;28;20648;-73
2021/01/10 04:15:49;;;;;;;25.30;19.37;;;;;;;-144.99;100.00;52615.25;5056285;28;20693;-74
2021/01/10 04:18:16;;;;;;;30.30;19.70;;;;;;;-144.99;100.00;52603.00;5077397;28;20639;-74
2021/01/10 04:20:43;;;;;;;30.77;21.17;;;;;;;-144.99;100.00;52582.63;5065741;28;20647;-74
2021/01/10 04:23:09;;;;;;;26.10;19.90;;;;;;;-144.99;100.00;52598.94;5074436;28;21176;-74
2021/01/10 04:25:35;;;;;;;31.33;20.07;;;;;;;-144.99;100.00;52603.00;5046867;28;20687;-73
2021/01/10 04:28:01;;;;;;;33.50;22.93;;;;;;;-144.99;100.00;52566.31;5055588;28;20630;-73
2021/01/10 04:30:27;;;;;;;28.63;21.33;;;;;;;-144.99;100.00;52576.50;5048945;28;20727;-72
2021/01/10 04:32:53;;;;;;;28.83;20.83;;;;;;;-144.99;100.00;52615.25;5049256;28;20659;-74
2021/01/10 04:35:20;;;;;;;27.83;20.03;;;;;;;-144.99;100.00;52603.00;5056807;28;20659;-73
2021/01/10 04:37:47;;;;;;;35.73;21.33;;;;;;;-144.99;100.00;52590.78;5056586;28;21094;-73
2021/01/10 04:40:13;;;;;;;26.87;17.70;;;;;;;-144.99;100.00;52611.16;5052243;28;20728;-74
2021/01/10 04:42:40;;;;;;;31.70;18.87;;;;;;;-144.99;100.00;52570.38;5052174;28;21082;-72
2021/01/10 04:45:09;;;;;;;28.37;20.93;;;;;;;-144.99;100.00;52615.25;5065993;28;20635;-73
2021/01/10 04:47:36;;;;;;;30.33;21.80;;;;;;;-144.99;100.00;52554.09;5049434;28;20694;-73
2021/01/10 04:50:03;;;;;;;30.87;21.03;;;;;;;-144.99;100.00;52568.34;5061717;28;21053;-73
2021/01/10 04:52:32;;;;;;;34.00;20.67;;;;;;;-144.99;100.00;52623.38;5068919;28;20614;-73
2021/01/10 04:55:01;;;;;;;34.57;21.00;;;;;;;-144.99;100.00;52615.25;5041366;28;20688;-73
2021/01/10 04:57:28;;;;;;;27.67;18.27;;;;;;;-144.99;100.00;52627.47;5068488;28;20669;-73
2021/01/10 04:59:55;;;;;;;28.60;19.67;;;;;;;-144.99;100.00;52586.69;5067659;28;20652;-75
2021/01/10 05:02:24;;;;;;;35.63;22.47;;;;;;;-144.99;100.00;52588.75;5079212;28;21287;-74
2021/01/10 05:04:51;;;;;;;30.03;21.83;;;;;;;-144.99;100.00;52611.16;5049682;28;20860;-74
2021/01/10 05:07:18;;;;;;;37.60;22.63;;;;;;;-144.99;100.00;52545.94;5063971;28;20655;-74
2021/01/10 05:09:46;;;;;;;34.30;19.70;;;;;;;-144.99;100.00;52605.03;5051956;28;20653;-72
2021/01/10 05:12:13;;;;;;;33.83;21.20;;;;;;;-144.99;100.00;52594.84;5053414;28;20648;-74
2021/01/10 05:14:39;;;;;;;25.70;20.30;;;;;;;-144.99;100.00;52631.53;5067518;28;20623;-72
2021/01/10 05:17:05;;;;;;;29.97;20.30;;;;;;;-144.99;100.00;52611.16;5057697;28;20654;-74
2021/01/10 05:19:32;;;;;;;34.17;20.33;;;;;;;-144.99;100.00;52584.66;5054573;28;20645;-75
2021/01/10 05:22:05;;;;;;;26.30;18.40;;;;;;;-144.99;100.00;52582.63;5065055;28;20688;-74
2021/01/10 05:24:31;;;;;;;30.00;18.33;;;;;;;-144.99;100.00;52596.88;5077708;28;20638;-74
2021/01/10 05:26:58;;;;;;;29.97;19.27;;;;;;;-144.99;100.00;52611.16;5066847;28;20691;-74
2021/01/10 05:29:26;;;;;;;36.00;20.93;;;;;;;-144.99;100.00;52611.16;5064781;28;20785;-74
2021/01/10 05:31:53;;;;;;;37.47;21.73;;;;;;;-144.99;100.00;52603.00;5052101;28;20643;-74
2021/01/10 05:34:20;;;;;;;34.27;20.97;;;;;;;-144.99;100.00;52586.69;5059551;28;20623;-74
2021/01/10 05:36:47;;;;;;;27.40;20.33;;;;;;;-144.99;100.00;52647.84;5057288;28;20658;-73
2021/01/10 05:39:19;;;;;;;31.23;21.37;;;;;;;-144.99;100.00;52566.31;5057428;28;20649;-74
2021/01/10 05:41:54;;;;;;;29.33;20.20;;;;;;;-144.99;100.00;52615.25;5043381;28;20685;-74
2021/01/10 05:44:21;;;;;;;36.60;19.90;;;;;;;-144.99;100.00;52613.19;5061884;28;20751;-74
2021/01/10 05:46:49;;;;;;;29.93;18.70;;;;;;;-144.99;100.00;52635.63;5055756;28;20650;-74
2021/01/10 05:49:20;;;;;;;29.60;19.23;;;;;;;-144.99;100.00;52578.53;5053404;28;20670;-74
2021/01/10 05:51:47;;;;;;;29.17;19.23;;;;;;;-144.99;100.00;52578.53;5066535;28;20638;-75
2021/01/10 05:54:34;;;;;;;26.37;18.80;;;;;;;-144.99;100.00;52590.78;5063729;28;20892;-74
2021/01/10 05:57:02;;;;;;;29.50;20.97;;;;;;;-144.99;100.00;52619.31;5060971;28;20654;-74
2021/01/10 05:59:30;;;;;;;30.57;19.47;;;;;;;-144.99;100.00;52617.28;5063105;28;20654;-75
2021/01/10 06:01:57;;;;;;;28.97;18.40;;;;;;;-144.99;100.00;52594.84;5060881;28;20627;-75
2021/01/10 06:04:25;;;;;;;28.07;18.80;;;;;;;-144.99;100.00;52611.16;5059138;28;20631;-75
2021/01/10 06:06:51;;;;;;;32.30;20.77;;;;;;;-144.99;100.00;52550.00;5053295;28;20734;-75
2021/01/10 06:09:17;;;;;;;39.63;22.40;;;;;;;-144.99;100.00;52619.31;5054030;28;20623;-74
2021/01/10 06:11:43;;;;;;;36.43;19.30;;;;;;;-144.99;100.00;52607.09;5058146;28;20613;-74
2021/01/10 06:14:11;;;;;;;28.97;18.37;;;;;;;-144.99;100.00;52590.78;5060788;28;20631;-75
2021/01/10 06:16:38;;;;;;;32.27;19.83;;;;;;;-144.99;100.00;52586.69;5056653;28;20663;-75
2021/01/10 06:19:06;;;;;;;27.23;19.47;;;;;;;-144.99;100.00;52580.59;5062756;28;20648;-74
2021/01/10 06:21:34;;;;;;;27.73;18.57;;;;;;;-144.99;100.00;52619.31;5052075;28;20726;-74
2021/01/10 06:24:02;;;;;;;35.27;21.47;;;;;;;-144.99;100.00;52619.31;5060367;28;20688;-76
2021/01/10 06:26:29;;;;;;;39.33;22.53;;;;;;;-144.99;100.00;52598.94;5071312;22;20642;-74
2021/01/10 06:28:59;;;;;;;28.90;19.27;;;;;;;-144.99;100.00;52586.69;5040559;28;20731;-73
2021/01/10 06:31:28;;;;;;;32.53;20.40;;;;;;;-144.99;100.00;52586.69;5048913;28;20628;-75
2021/01/10 06:34:02;;;;;;;29.03;20.27;;;;;;;-144.99;100.00;52586.69;5048551;28;20711;-74
2021/01/10 06:36:31;;;;;;;31.13;21.27;;;;;;;-144.99;100.00;52603.00;5044616;28;20730;-75
2021/01/10 06:39:05;;;;;;;34.80;19.60;;;;;;;-144.99;100.00;52588.75;5028359;28;20660;-75
2021/01/10 06:42:08;;;;;;;31.93;20.90;;;;;;;-144.99;100.00;52572.44;5027518;28;20672;-75
2021/01/10 06:44:36;;;;;;;31.70;18.40;;;;;;;-144.99;100.00;52590.78;5027272;28;20625;-75
2021/01/10 06:47:03;;;;;;;33.33;21.20;;;;;;;-144.99;100.00;52623.38;5023708;28;21222;-75
2021/01/10 06:49:29;;;;;;;32.70;20.87;;;;;;;-144.99;100.00;52649.88;5028085;28;20620;-76
2021/01/10 06:51:58;;;;;;;31.00;18.47;;;;;;;-144.99;100.00;52582.63;5029363;28;20624;-74
2021/01/10 06:54:26;;;;;;;33.47;20.33;;;;;;;-144.99;100.00;52619.31;5028941;28;20633;-76
2021/01/10 06:56:54;;;;;;;30.07;20.10;;;;;;;-144.99;100.00;52611.16;5028044;28;21017;-75
2021/01/10 06:59:21;;;;;;;25.60;16.67;;;;;;;-144.99;100.00;52590.78;5029155;28;20653;-76
2021/01/10 07:02:05;;;;;;;42.03;19.57;;;;;;;-144.99;100.00;52590.78;5025474;28;20625;-77
2021/01/10 07:04:57;;;;;;;32.60;20.43;;;;;;;-144.99;100.00;52582.63;5026988;28;21249;-74
2021/01/10 07:07:35;;;;;;;32.70;19.63;;;;;;;-144.99;100.00;52603.00;5027581;28;20664;-76
2021/01/10 07:10:04;;;;;;;28.33;18.77;;;;;;;-144.99;100.00;52594.84;5020918;28;21045;-76
2021/01/10 07:12:30;;;;;;;35.77;20.67;;;;;;;-144.99;100.00;52611.16;5029296;28;20653;-77
2021/01/10 07:15:26;;;;;;;31.00;19.37;;;;;;;-144.99;100.00;52578.53;5029154;28;20688;-77
2021/01/10 07:18:10;;;;;;;38.27;20.87;;;;;;;-144.99;100.00;52619.31;5028031;28;20652;-78
2021/01/10 07:20:41;;;;;;;32.77;21.60;;;;;;;-144.99;100.00;52556.13;5024283;28;20675;-78
2021/01/10 07:23:29;;;;;;;32.97;20.23;;;;;;;-144.99;100.00;52594.84;5030095;28;20732;-77
2021/01/10 07:25:57;;;;;;;31.73;21.40;;;;;;;-144.99;100.00;52603.00;5027736;28;21293;-77
2021/01/10 07:28:40;;;;;;;35.20;19.23;;;;;;;-144.99;100.00;52611.16;5029569;28;20649;-77
2021/01/10 07:31:08;;;;;;;32.63;20.03;;;;;;;-144.99;100.00;52580.59;5027611;28;20776;-78
2021/01/10 07:33:35;;;;;;;34.53;20.80;;;;;;;-144.99;100.00;52623.38;5027984;28;21167;-79
2021/01/10 07:36:02;;;;;;;25.00;16.50;;;;;;;-144.99;100.00;52566.31;5021696;28;20726;-78
2021/01/10 07:38:31;;;;;;;32.83;19.43;;;;;;;-144.99;100.00;52576.50;5026923;28;20723;-78
2021/01/10 07:41:21;;;;;;;36.73;19.17;;;;;;;-144.99;100.00;52584.66;5019685;28;20674;-77
2021/01/10 07:43:52;;;;;;;30.27;19.03;;;;;;;-144.99;100.00;52598.94;5029405;28;20635;-78
2021/01/10 07:47:00;;;;;;;29.80;18.90;;;;;;;-144.99;100.00;52586.69;5027714;28;20703;-78
2021/01/10 07:49:45;;;;;;;42.20;18.47;;;;;;;-144.99;100.00;52611.16;5023994;28;20724;-78
2021/01/10 07:52:11;;;;;;;28.77;16.80;;;;;;;-144.99;100.00;52615.25;5026243;28;20739;-79
2021/01/10 07:54:56;;;;;;;31.97;17.97;;;;;;;-144.99;100.00;52582.63;5029622;28;20955;-77
2021/01/10 07:57:33;;;;;;;28.37;16.40;;;;;;;-144.99;100.00;52598.94;5021346;28;20649;-76
2021/01/10 08:00:11;;;;;;;28.00;18.07;;;;;;;-144.99;100.00;52598.94;5023916;28;21070;-76
2021/01/10 08:03:01;;;;;;;31.87;19.60;;;;;;;-144.99;100.00;52611.16;5026168;28;20636;-76
2021/01/10 08:05:30;;;;;;;27.60;17.37;;;;;;;-144.99;100.00;52566.31;5027213;28;20730;-73
2021/01/10 08:08:01;;;;;;;23.77;16.03;;;;;;;-144.99;100.00;52598.94;5028469;28;20798;-72
2021/01/10 08:10:42;;;;;;;35.03;19.00;;;;;;;-144.99;100.00;52594.84;5024422;28;20621;-73
2021/01/10 08:13:28;;;;;;;31.17;19.10;;;;;;;-144.99;100.00;52566.31;5032358;28;20682;-72
2021/01/10 08:15:54;;;;;;;36.80;19.70;;;;;;;-144.99;100.00;52615.25;5015373;28;21001;-73
2021/01/10 08:18:22;;;;;;;25.57;17.87;;;;;;;-144.99;100.00;52558.16;5027225;28;20768;-73
2021/01/10 08:20:49;;;;;;;30.70;17.57;;;;;;;-144.99;100.00;52603.00;5025767;28;20691;-74
2021/01/10 08:23:16;;;;;;;30.27;16.87;;;;;;;-144.99;100.00;52586.69;5028480;28;20732;-73
2021/01/10 08:25:43;;;;;;;30.03;16.60;;;;;;;-144.99;100.00;52590.78;5026957;28;20808;-74
2021/01/10 08:28:11;;;;;;;21.57;15.30;;;;;;;-144.99;100.00;52566.31;5023748;28;21274;-74
2021/01/10 08:30:37;;;;;;;25.97;17.37;;;;;;;-144.99;100.00;52607.09;5026492;28;20727;-73
2021/01/10 08:33:04;;;;;;;26.20;18.23;;;;;;;-144.99;100.00;52588.75;5032227;28;20637;-72
2021/01/10 08:35:30;;;;;;;29.73;19.03;;;;;;;-144.99;100.00;52578.53;5025349;28;20707;-71
2021/01/10 08:37:56;;;;;;;25.03;16.30;;;;;;;-144.99;100.00;52533.69;5028780;28;20683;-73
2021/01/10 08:40:22;;;;;;;35.43;18.77;;;;;;;-144.99;100.00;52562.25;5025215;28;20696;-74
2021/01/10 08:42:49;;;;;;;28.57;16.57;;;;;;;-144.99;100.00;52568.34;5028587;28;20625;-73
2021/01/10 08:45:18;;;;;;;27.63;17.20;;;;;;;-144.99;100.00;52552.03;5026482;28;21052;-74
2021/01/10 08:47:45;;;;;;;22.13;14.07;;;;;;;-144.99;100.00;52562.25;5024737;28;20686;-72
2021/01/10 08:50:13;;;;;;;25.00;15.90;;;;;;;-144.99;100.00;52566.31;5027321;28;20716;-74
2021/01/10 08:52:53;;;;;;;25.37;16.70;;;;;;;-144.99;100.00;52562.25;5028918;28;20656;-74
2021/01/10 08:55:34;;;;;;;22.87;15.43;;;;;;;-144.99;100.00;52545.94;5026914;28;20651;-75
2021/01/10 08:58:01;;;;;;;24.40;16.30;;;;;;;-144.99;100.00;52564.28;5022242;28;20680;-74
2021/01/10 09:00:28;;;;;;;28.30;18.00;;;;;;;-144.99;100.00;52545.94;5027651;28;20661;-75
2021/01/10 09:02:54;;;;;;;26.20;17.10;;;;;;;-144.99;100.00;52588.75;5025588;28;20635;-73
2021/01/10 09:05:25;;;;;;;21.97;14.73;;;;;;;-144.99;100.00;52582.63;5016552;28;20637;-72
2021/01/10 09:07:56;;;;;;;22.73;14.03;;;;;;;-144.99;100.00;52590.78;5024443;28;20759;-73
2021/01/10 09:10:24;;;;;;;20.60;15.30;;;;;;;-144.99;100.00;52582.63;5027601;28;20727;-74
2021/01/10 09:12:55;;;;;;;21.80;15.53;;;;;;;-144.99;100.00;52562.25;5026239;28;20648;-74
2021/01/10 09:15:27;;;;;;;26.50;18.47;;;;;;;-144.99;100.00;52572.44;5025087;28;20643;-73
2021/01/10 09:17:59;;;;;;;27.20;17.03;;;;;;;-144.99;100.00;52578.53;5028999;28;20668;-73
2021/01/10 09:20:28;;;;;;;25.87;17.00;;;;;;;-144.99;100.00;52570.38;5026402;28;20764;-73
2021/01/10 09:22:56;;;;;;;21.77;18.03;;;;;;;-144.99;100.00;52570.38;5018993;28;20629;-74
2021/01/10 09:25:22;;;;;;;22.40;15.33;;;;;;;-144.99;100.00;52586.69;5025655;28;20625;-73
2021/01/10 09:28:08;;;;;;;22.33;16.27;;;;;;;-144.99;100.00;52517.41;5023286;28;20680;-74
2021/01/10 09:30:35;;;;;;;20.53;14.53;;;;;;;-144.99;100.00;52550.00;5030973;28;20727;-75
2021/01/10 09:33:03;;;;;;;22.90;14.33;;;;;;;-144.99;100.00;52590.78;5027842;28;20859;-76
2021/01/10 09:35:36;;;;;;;22.97;14.80;;;;;;;-144.99;100.00;52570.38;5028014;28;20652;-72
2021/01/10 09:38:08;;;;;;;31.10;16.60;;;;;;;-144.99;100.00;52586.69;5027388;28;20730;-74
2021/01/10 09:40:34;;;;;;;24.17;15.77;;;;;;;-144.99;100.00;52570.38;5031358;28;20659;-74
2021/01/10 09:43:00;;;;;;;25.27;16.37;;;;;;;-144.99;100.00;52603.00;5032029;28;20762;-74
2021/01/10 09:45:37;;;;;;;25.50;17.13;;;;;;;-144.99;100.00;52598.94;5031980;28;20705;-73
2021/01/10 09:48:05;;;;;;;25.03;17.53;;;;;;;-144.99;100.00;52592.81;5031087;28;20655;-74
2021/01/10 09:50:32;;;;;;;26.80;16.40;;;;;;;-144.99;100.00;52570.38;5030144;28;21019;-73
2021/01/10 09:52:58;;;;;;;25.43;17.73;;;;;;;-144.99;100.00;52541.84;5031687;28;20980;-74
2021/01/10 09:55:27;;;;;;;26.67;17.10;;;;;;;-144.99;100.00;52594.84;5031341;28;20617;-74
2021/01/10 09:57:54;;;;;;;28.60;15.60;;;;;;;-144.99;100.00;52584.66;5031182;28;21261;-73
2021/01/10 10:00:21;;;;;;;24.03;16.50;;;;;;;-144.99;100.00;52578.53;5031354;28;20732;-74
2021/01/10 10:02:48;;;;;;;25.40;17.57;;;;;;;-144.99;100.00;52570.38;5030848;28;20734;-72
2021/01/10 10:05:17;;;;;;;24.27;15.97;;;;;;;-144.99;100.00;52578.53;5030094;28;20628;-73
2021/01/10 10:07:46;;;;;;;28.53;16.90;;;;;;;-144.99;100.00;52550.00;5030857;28;20663;-71
2021/01/10 10:10:23;;;;;;;23.93;15.53;;;;;;;-144.99;100.00;52590.78;5030869;28;21203;-72
2021/01/10 10:12:54;;;;;;;29.10;16.23;;;;;;;-144.99;100.00;52574.47;5036345;28;20601;-71
2021/01/10 10:15:20;;;;;;;28.50;16.37;;;;;;;-144.99;100.00;52578.53;5030952;28;20648;-73
2021/01/10 10:17:47;;;;;;;33.33;18.37;;;;;;;-144.99;100.00;52545.94;5030255;28;20944;-74
2021/01/10 10:20:13;;;;;;;21.57;15.07;;;;;;;-144.99;100.00;52521.47;5029530;28;20706;-72
2021/01/10 10:22:40;;;;;;;28.80;17.60;;;;;;;-144.99;100.00;52545.94;5030855;28;21008;-71
2021/01/10 10:25:08;;;;;;;29.90;16.90;;;;;;;-144.99;96.93;52523.50;5031879;28;20717;-74
2021/01/10 10:27:36;;;;;;;19.43;14.57;;;;;;;-144.99;94.03;52511.28;5030192;28;20763;-74
2021/01/10 10:30:03;;;;;;;25.00;16.43;;;;;;;-144.99;92.00;52488.84;5035774;28;20655;-73
2021/01/10 10:32:29;;;;;;;19.83;13.20;;;;;;;-144.99;87.86;52484.78;5033890;28;20700;-73
2021/01/10 10:34:56;;;;;;;24.17;14.83;;;;;;;-144.99;87.77;52448.09;5028670;28;20934;-71
2021/01/10 10:37:23;;;;;;;23.97;14.87;;;;;;;-144.99;86.20;52464.41;5030517;28;20691;-73
2021/01/10 10:39:51;;;;;;;24.97;15.20;;;;;;;-144.99;84.71;52517.41;5032864;28;20684;-74
2021/01/10 10:42:18;;;;;;;17.93;13.57;;;;;;;-144.99;85.12;52501.09;5033668;28;20656;-74
2021/01/10 10:44:46;;;;;;;25.67;13.90;;;;;;;-144.99;86.23;52503.13;5029348;28;20664;-73
2021/01/10 10:47:13;;;;;;;20.73;13.70;;;;;;;-144.99;87.02;52505.16;5021730;28;21330;-73
2021/01/10 10:49:40;;;;;;;22.97;14.20;;;;;;;-144.99;85.62;52441.97;5028890;28;20720;-72
2021/01/10 10:52:08;;;;;;;22.30;15.50;;;;;;;-144.99;84.25;52448.09;5031024;28;20756;-73
2021/01/10 10:54:35;;;;;;;21.50;12.63;;;;;;;-144.99;85.14;52497.00;5030826;28;20970;-73
2021/01/10 10:57:02;;;;;;;23.63;15.63;;;;;;;-144.99;85.56;52497.00;5030213;28;20779;-73
2021/01/10 10:59:28;;;;;;;22.77;14.23;;;;;;;-144.99;88.58;52494.97;5029902;28;20640;-75
2021/01/10 11:01:54;;;;;;;25.60;18.53;;;;;;;-144.99;89.77;52537.78;5030607;28;20648;-72
2021/01/10 11:04:20;;;;;;;23.00;14.37;;;;;;;-144.99;91.50;52566.31;5028011;28;20985;-72